Time;durP1;ratioP1;P1;durP2;ratioP2;P2;SDS_P1;SDS_P2;PMS_P1;PMS_P2;Temp;Humidity;BMP_temperature;BMP_pressure;BME280_temperature;BME280_humidity;BME280_pressure;Samples;Min_cycle;Max_cycle;Signal;HPM_P1;HPM_P2
2021/03/16 00:02:12;;;;;;;30.80;4.87;;;7.10;84.60;;;;;;5037971;28;20088;-80
2021/03/16 00:04:37;;;;;;;22.17;5.27;;;7.10;84.60;;;;;;5006128;28;20157;-79
2021/03/16 00:07:07;;;;;;;27.30;5.10;;;7.20;85.00;;;;;;5016458;28;20083;-79
2021/03/16 00:09:34;;;;;;;26.20;5.37;;;7.30;84.70;;;;;;5016115;28;20018;-78
2021/03/16 00:11:59;;;;;;;28.30;5.93;;;7.30;84.70;;;;;;5015643;28;20034;-78
2021/03/16 00:14:25;;;;;;;25.77;5.00;;;7.40;84.60;;;;;;5016391;28;20044;-78
2021/03/16 00:16:51;;;;;;;23.03;5.23;;;7.40;84.40;;;;;;5032350;28;20124;-80
2021/03/16 00:19:20;;;;;;;27.10;4.20;;;7.30;84.40;;;;;;5032853;28;20524;-80
2021/03/16 00:21:46;;;;;;;24.13;4.77;;;7.30;84.40;;;;;;5015976;28;20481;-79
2021/03/16 00:24:11;;;;;;;17.37;4.60;;;7.20;84.20;;;;;;5015133;28;20076;-79
2021/03/16 00:26:37;;;;;;;25.27;4.23;;;7.20;84.40;;;;;;5034165;28;20022;-79
2021/03/16 00:29:03;;;;;;;35.60;4.70;;;7.20;84.30;;;;;;5015097;28;20022;-79
2021/03/16 00:31:29;;;;;;;17.27;4.50;;;7.20;84.30;;;;;;5017254;28;20029;-79
2021/03/16 00:33:55;;;;;;;26.13;4.43;;;7.10;84.40;;;;;;5014525;28;20071;-79
2021/03/16 00:36:21;;;;;;;23.70;4.97;;;7.10;84.50;;;;;;4999947;28;20501;-79
2021/03/16 00:38:47;;;;;;;32.50;4.27;;;7.10;84.30;;;;;;5031203;28;20032;-79
2021/03/16 00:41:13;;;;;;;27.40;5.03;;;7.10;84.50;;;;;;5010044;28;20045;-80
2021/03/16 00:43:38;;;;;;;25.73;3.93;;;7.10;84.60;;;;;;5000224;28;20041;-79
2021/03/16 00:46:04;;;;;;;25.10;4.50;;;7.10;84.70;;;;;;4978452;28;20034;-80
2021/03/16 00:48:30;;;;;;;29.50;4.40;;;7.00;84.70;;;;;;5011725;28;20039;-79
2021/03/16 00:50:55;;;;;;;21.73;4.30;;;7.10;84.70;;;;;;5015106;28;20638;-81
2021/03/16 00:53:21;;;;;;;21.43;3.63;;;7.10;84.70;;;;;;5015546;28;20168;-79
2021/03/16 00:55:47;;;;;;;19.23;3.13;;;7.10;84.60;;;;;;5015106;28;20084;-79
2021/03/16 00:58:13;;;;;;;20.23;3.97;;;7.20;84.60;;;;;;5014768;28;20099;-79
2021/03/16 01:00:38;;;;;;;21.60;4.87;;;7.20;84.50;;;;;;5031514;28;20069;-79
2021/03/16 01:03:04;;;;;;;23.30;4.00;;;7.10;84.20;;;;;;5032762;28;20474;-80
2021/03/16 01:05:30;;;;;;;24.23;2.67;;;7.10;84.10;;;;;;5031914;28;20037;-80
2021/03/16 01:07:56;;;;;;;24.87;3.20;;;7.10;84.00;;;;;;5014872;28;20029;-80
2021/03/16 01:10:23;;;;;;;22.03;2.33;;;7.00;83.50;;;;;;5013654;28;20033;-80
2021/03/16 01:12:49;;;;;;;21.00;3.80;;;7.00;83.40;;;;;;5014810;28;20033;-80
2021/03/16 01:15:15;;;;;;;22.80;3.03;;;7.00;83.60;;;;;;5031912;28;20087;-80
2021/03/16 01:17:41;;;;;;;13.87;2.87;;;7.10;83.70;;;;;;5031450;28;20148;-79
2021/03/16 01:20:13;;;;;;;20.23;3.10;;;7.00;83.30;;;;;;5032440;28;20032;-77
2021/03/16 01:22:39;;;;;;;21.63;3.53;;;7.10;83.50;;;;;;5032235;28;20496;-78
2021/03/16 01:25:05;;;;;;;23.03;3.13;;;7.10;83.00;;;;;;5014641;28;20029;-78
2021/03/16 01:27:31;;;;;;;14.60;2.90;;;7.10;83.00;;;;;;5013432;28;20115;-78
2021/03/16 01:29:56;;;;;;;19.57;2.67;;;7.10;83.30;;;;;;5014548;28;20111;-78
2021/03/16 01:32:22;;;;;;;16.53;3.20;;;7.20;83.10;;;;;;5012892;28;20029;-78
2021/03/16 01:34:47;;;;;;;19.60;2.20;;;7.30;83.30;;;;;;5030773;28;20099;-78
2021/03/16 01:37:13;;;;;;;19.80;2.50;;;7.30;82.90;;;;;;4982061;28;20021;-78
2021/03/16 01:39:39;;;;;;;21.93;2.90;;;7.20;82.60;;;;;;4978816;28;20521;-78
2021/03/16 01:42:04;;;;;;;23.30;3.23;;;7.20;82.50;;;;;;5013430;28;20543;-80
2021/03/16 01:44:30;;;;;;;24.13;2.40;;;7.20;82.60;;;;;;5014645;28;20037;-77
2021/03/16 01:46:56;;;;;;;17.20;2.03;;;7.20;82.70;;;;;;5014858;28;20053;-78
2021/03/16 01:49:22;;;;;;;23.97;2.90;;;7.20;82.80;;;;;;5013309;28;20107;-77
2021/03/16 01:51:47;;;;;;;22.00;2.60;;;7.20;83.00;;;;;;5031581;28;20022;-78
2021/03/16 01:54:13;;;;;;;20.43;2.87;;;7.20;83.00;;;;;;4997091;28;20046;-78
2021/03/16 01:56:41;;;;;;;28.70;2.63;;;7.20;82.90;;;;;;5014041;28;20033;-78
2021/03/16 01:59:07;;;;;;;24.30;2.73;;;7.10;82.80;;;;;;5029020;28;20052;-80
2021/03/16 02:01:33;;;;;;;20.90;3.27;;;7.10;83.10;;;;;;5013655;28;20017;-80
2021/03/16 02:03:58;;;;;;;29.40;2.87;;;7.20;83.50;;;;;;5030464;28;20033;-78
2021/03/16 02:06:41;;;;;;;24.90;2.67;;;7.20;83.80;;;;;;4994151;28;20105;-78
2021/03/16 02:09:23;;;;;;;22.30;2.80;;;7.20;83.70;;;;;;5013390;28;20075;-79
2021/03/16 02:12:28;;;;;;;17.53;2.77;;;7.20;83.80;;;;;;5012955;28;20029;-78
2021/03/16 02:14:59;;;;;;;23.57;2.83;;;7.20;84.00;;;;;;4960517;28;20047;-77
2021/03/16 02:17:35;;;;;;;21.23;2.30;;;7.30;83.90;;;;;;4949864;28;20051;-78
2021/03/16 02:20:13;;;;;;;18.40;2.30;;;7.30;84.10;;;;;;4985057;28;20052;-78
2021/03/16 02:22:42;;;;;;;18.33;2.67;;;7.30;84.10;;;;;;5011736;28;20034;-78
2021/03/16 02:25:11;;;;;;;27.00;2.40;;;7.30;84.20;;;;;;5011228;28;20045;-80
2021/03/16 02:27:49;;;;;;;20.60;2.43;;;7.30;84.20;;;;;;5010489;28;20036;-78
2021/03/16 02:30:16;;;;;;;21.33;2.50;;;7.20;84.10;;;;;;5008034;28;20022;-78
2021/03/16 02:32:44;;;;;;;21.60;2.47;;;7.20;84.40;;;;;;5010700;28;20029;-78
2021/03/16 02:35:11;;;;;;;22.17;2.20;;;7.30;84.40;;;;;;5009600;28;20113;-80
2021/03/16 02:37:38;;;;;;;19.93;2.50;;;7.20;84.30;;;;;;5008201;28;20382;-78
2021/03/16 02:40:07;;;;;;;25.73;3.60;;;7.30;84.30;;;;;;5009979;28;20528;-78
2021/03/16 02:42:34;;;;;;;18.10;1.77;;;7.20;84.20;;;;;;5010041;28;20026;-78
2021/03/16 02:45:03;;;;;;;18.07;2.37;;;7.30;84.30;;;;;;5010402;28;20030;-78
2021/03/16 02:47:29;;;;;;;21.47;1.97;;;7.30;84.30;;;;;;5013037;28;20026;-78
2021/03/16 02:49:56;;;;;;;25.83;2.80;;;7.30;84.50;;;;;;5009503;28;20037;-78
2021/03/16 02:52:23;;;;;;;18.63;1.77;;;7.30;84.00;;;;;;5008567;28;20022;-77
2021/03/16 02:54:51;;;;;;;16.93;2.03;;;7.20;84.20;;;;;;4993947;28;20073;-78
2021/03/16 02:57:17;;;;;;;20.47;2.10;;;7.20;84.10;;;;;;5010012;28;20509;-78
2021/03/16 02:59:45;;;;;;;17.90;2.20;;;7.20;84.00;;;;;;5011632;28;20088;-78
2021/03/16 03:02:13;;;;;;;17.67;1.67;;;7.10;84.00;;;;;;5010969;28;20037;-81
2021/03/16 03:04:41;;;;;;;22.47;2.60;;;7.10;84.10;;;;;;5010016;28;20481;-78
2021/03/16 03:07:11;;;;;;;21.97;2.17;;;7.10;84.20;;;;;;5008699;28;20026;-79
2021/03/16 03:09:38;;;;;;;15.07;2.43;;;7.20;84.30;;;;;;5010080;28;20072;-77
2021/03/16 03:12:08;;;;;;;18.10;2.93;;;7.20;84.30;;;;;;5010579;28;20076;-77
2021/03/16 03:14:36;;;;;;;17.90;2.70;;;7.20;84.10;;;;;;5010858;28;20029;-77
2021/03/16 03:17:03;;;;;;;22.10;2.80;;;7.10;83.90;;;;;;5010259;28;20050;-78
2021/03/16 03:19:29;;;;;;;23.50;3.60;;;7.10;84.00;;;;;;5010661;28;20406;-78
2021/03/16 03:22:04;;;;;;;17.93;2.70;;;7.20;84.00;;;;;;5009088;28;20034;-77
2021/03/16 03:24:36;;;;;;;18.87;3.10;;;7.10;83.90;;;;;;5000390;28;20057;-79
2021/03/16 03:27:01;;;;;;;25.80;3.67;;;7.10;84.10;;;;;;5012539;28;20505;-79
2021/03/16 03:29:29;;;;;;;21.70;4.03;;;7.10;84.20;;;;;;5012863;28;20026;-78
2021/03/16 03:31:57;;;;;;;28.00;4.90;;;7.10;84.30;;;;;;5017221;28;20036;-78
2021/03/16 03:34:23;;;;;;;25.23;3.63;;;7.20;84.10;;;;;;5016417;28;20026;-77
2021/03/16 03:36:53;;;;;;;19.73;3.50;;;7.20;84.30;;;;;;5014933;28;20030;-77
2021/03/16 03:39:21;;;;;;;21.87;3.77;;;7.20;84.20;;;;;;5014555;28;20052;-80
2021/03/16 03:41:47;;;;;;;16.70;3.13;;;7.20;84.20;;;;;;5016081;28;20100;-77
2021/03/16 03:44:13;;;;;;;22.00;4.43;;;7.30;84.20;;;;;;4994838;28;20097;-77
2021/03/16 03:46:40;;;;;;;31.67;4.70;;;7.30;84.20;;;;;;4994749;28;20038;-78
2021/03/16 03:49:08;;;;;;;16.83;3.40;;;7.30;83.90;;;;;;5015598;28;20036;-79
2021/03/16 03:51:35;;;;;;;18.77;4.13;;;7.30;83.80;;;;;;5009762;28;20031;-78
2021/03/16 03:54:02;;;;;;;17.20;3.23;;;7.20;83.80;;;;;;5013279;28;20037;-78
2021/03/16 03:56:29;;;;;;;17.33;3.10;;;7.20;83.90;;;;;;4997182;28;20033;-79
2021/03/16 03:58:58;;;;;;;19.97;2.67;;;7.20;83.70;;;;;;5014821;28;20026;-78
2021/03/16 04:01:25;;;;;;;20.73;3.13;;;7.20;83.70;;;;;;5014900;28;20025;-78
2021/03/16 04:03:51;;;;;;;16.67;2.90;;;7.20;83.90;;;;;;5015962;28;20030;-78
2021/03/16 04:06:18;;;;;;;19.27;2.70;;;7.20;83.70;;;;;;5020064;28;20021;-79
2021/03/16 04:08:44;;;;;;;11.67;2.43;;;7.20;83.50;;;;;;5020568;28;20075;-78
2021/03/16 04:11:10;;;;;;;21.30;2.70;;;7.20;83.70;;;;;;4993111;28;20037;-78
2021/03/16 04:13:38;;;;;;;22.87;2.50;;;7.10;83.50;;;;;;5033417;28;20038;-78
2021/03/16 04:16:05;;;;;;;19.07;2.13;;;7.10;83.40;;;;;;5026540;28;20042;-78
2021/03/16 04:18:31;;;;;;;15.13;1.80;;;7.20;83.70;;;;;;5009695;28;20054;-78
2021/03/16 04:20:57;;;;;;;21.10;1.80;;;7.20;83.80;;;;;;4994107;28;20066;-78
2021/03/16 04:23:23;;;;;;;17.43;2.60;;;7.20;83.70;;;;;;4991466;28;20439;-78
2021/03/16 04:25:49;;;;;;;21.63;2.13;;;7.20;83.80;;;;;;4977746;28;20121;-77
2021/03/16 04:28:14;;;;;;;20.37;1.67;;;7.20;83.70;;;;;;5008723;28;20030;-78
2021/03/16 04:30:40;;;;;;;16.17;1.80;;;7.20;83.50;;;;;;5012662;28;20284;-78
2021/03/16 04:33:07;;;;;;;12.97;1.30;;;7.20;83.60;;;;;;5011064;28;20038;-78
2021/03/16 04:35:33;;;;;;;14.33;1.83;;;7.10;83.50;;;;;;5012294;28;20022;-79
2021/03/16 04:37:58;;;;;;;18.33;2.27;;;7.20;83.90;;;;;;4996443;28;20475;-78
2021/03/16 04:40:24;;;;;;;19.27;2.10;;;7.20;83.90;;;;;;5013835;28;20041;-80
2021/03/16 04:42:50;;;;;;;17.97;2.17;;;7.20;83.60;;;;;;5013244;28;20513;-78
2021/03/16 04:45:16;;;;;;;19.20;1.83;;;7.20;83.50;;;;;;4980275;28;20050;-78
2021/03/16 04:47:42;;;;;;;14.57;1.63;;;7.20;83.50;;;;;;4995016;28;20637;-78
2021/03/16 04:50:08;;;;;;;15.87;1.73;;;7.20;83.60;;;;;;5012489;28;20394;-78
2021/03/16 04:52:33;;;;;;;17.47;1.90;;;7.20;83.60;;;;;;5013158;28;20033;-78
2021/03/16 04:54:59;;;;;;;13.17;1.80;;;7.30;83.60;;;;;;5013063;28;20394;-78
2021/03/16 04:57:25;;;;;;;21.20;2.30;;;7.30;83.50;;;;;;5005529;28;20038;-80
2021/03/16 04:59:50;;;;;;;13.77;1.37;;;7.30;83.50;;;;;;4961271;28;20022;-78
2021/03/16 05:02:16;;;;;;;16.43;1.83;;;7.30;83.30;;;;;;4994274;28;20041;-78
2021/03/16 05:04:42;;;;;;;14.70;1.40;;;7.30;83.30;;;;;;5010308;28;20045;-77
2021/03/16 05:07:08;;;;;;;18.67;2.10;;;7.30;83.20;;;;;;5013157;28;20030;-78
2021/03/16 05:09:34;;;;;;;15.47;1.67;;;7.30;83.30;;;;;;4997654;28;20480;-80
2021/03/16 05:11:59;;;;;;;16.83;2.20;;;7.40;83.90;;;;;;5023981;28;20030;-79
2021/03/16 05:14:25;;;;;;;17.47;2.07;;;7.40;83.60;;;;;;5014317;28;20045;-82
2021/03/16 05:16:51;;;;;;;15.80;1.33;;;7.50;83.70;;;;;;5015139;28;20034;-79
2021/03/16 05:19:16;;;;;;;15.07;1.87;;;7.50;83.40;;;;;;5035266;28;20133;-79
2021/03/16 05:21:42;;;;;;;14.33;1.80;;;7.50;83.40;;;;;;5018562;28;20030;-79
2021/03/16 05:24:09;;;;;;;13.07;1.43;;;7.50;83.40;;;;;;5023132;28;20382;-79
2021/03/16 05:26:35;;;;;;;17.27;2.13;;;7.40;83.40;;;;;;5020446;28;20060;-80
2021/03/16 05:29:00;;;;;;;16.10;1.80;;;7.50;83.50;;;;;;5042672;28;20479;-79
2021/03/16 05:31:26;;;;;;;16.13;1.50;;;7.40;83.40;;;;;;5023014;28;20053;-81
2021/03/16 05:33:52;;;;;;;13.57;1.17;;;7.40;83.50;;;;;;5024171;28;20040;-79
2021/03/16 05:36:17;;;;;;;13.17;1.10;;;7.40;83.60;;;;;;5029263;28;20394;-80
2021/03/16 05:38:43;;;;;;;12.07;1.27;;;7.40;83.60;;;;;;5005027;28;20030;-79
2021/03/16 05:41:09;;;;;;;18.50;1.80;;;7.30;83.60;;;;;;5015212;28;20524;-79
2021/03/16 05:43:35;;;;;;;17.43;1.63;;;7.30;83.70;;;;;;4992348;28;20030;-79
2021/03/16 05:46:01;;;;;;;19.47;1.63;;;7.40;84.00;;;;;;5013868;28;20064;-79
2021/03/16 05:48:29;;;;;;;15.77;1.80;;;7.40;83.80;;;;;;4987317;28;20057;-80
2021/03/16 05:50:58;;;;;;;16.50;1.77;;;7.40;83.80;;;;;;5033425;28;20017;-78
2021/03/16 05:53:24;;;;;;;14.57;1.30;;;7.40;83.70;;;;;;5027701;28;20393;-79
2021/03/16 05:55:50;;;;;;;13.40;1.50;;;7.40;83.70;;;;;;4999652;28;20021;-79
2021/03/16 05:58:16;;;;;;;14.87;1.50;;;7.40;83.60;;;;;;5030914;28;20179;-79
2021/03/16 06:00:41;;;;;;;18.77;1.30;;;7.40;83.60;;;;;;5032827;28;20029;-79
2021/03/16 06:03:07;;;;;;;22.40;2.40;;;7.40;83.90;;;;;;5014295;28;20037;-80
2021/03/16 06:05:33;;;;;;;13.67;1.30;;;7.30;83.70;;;;;;5031478;28;20393;-80
2021/03/16 06:07:58;;;;;;;15.80;1.67;;;7.30;83.80;;;;;;4998762;28;20038;-79
2021/03/16 06:10:24;;;;;;;14.13;1.67;;;7.30;83.90;;;;;;5011963;28;20371;-79
2021/03/16 06:12:50;;;;;;;15.23;1.60;;;7.30;84.10;;;;;;5016210;28;20026;-77
2021/03/16 06:15:17;;;;;;;14.17;1.20;;;7.40;84.30;;;;;;5012215;28;20072;-77
2021/03/16 06:17:53;;;;;;;17.47;2.10;;;7.40;84.20;;;;;;5011831;28;20050;-80
2021/03/16 06:20:29;;;;;;;16.80;1.80;;;7.50;84.20;;;;;;5012632;28;20029;-80
2021/03/16 06:23:05;;;;;;;21.80;2.50;;;7.50;84.40;;;;;;5030208;28;20032;-79
2021/03/16 06:25:36;;;;;;;15.13;1.47;;;7.50;84.20;;;;;;5013941;28;20033;-82
2021/03/16 06:28:05;;;;;;;22.63;2.40;;;7.60;84.10;;;;;;5029895;28;20021;-80
2021/03/16 06:30:31;;;;;;;17.83;2.03;;;7.60;83.80;;;;;;5013202;28;20124;-81
2021/03/16 06:32:57;;;;;;;18.53;2.43;;;7.60;83.90;;;;;;5031326;28;20029;-80
2021/03/16 06:35:24;;;;;;;16.20;2.40;;;7.60;83.80;;;;;;5002191;28;20056;-80
2021/03/16 06:38:08;;;;;;;17.73;2.23;;;7.70;84.00;;;;;;5023072;28;20041;-79
2021/03/16 06:40:34;;;;;;;19.93;2.37;;;7.70;83.80;;;;;;5030300;28;20029;-82
2021/03/16 06:43:11;;;;;;;23.50;3.13;;;7.70;84.10;;;;;;5013664;28;20741;-80
2021/03/16 06:45:39;;;;;;;23.47;2.83;;;7.80;84.20;;;;;;4995940;28;20083;-80
2021/03/16 06:48:16;;;;;;;16.20;3.07;;;7.90;84.30;;;;;;5012700;28;20503;-80
2021/03/16 06:50:42;;;;;;;21.23;2.83;;;7.90;84.40;;;;;;5013808;28;20033;-79
2021/03/16 06:53:20;;;;;;;14.67;2.97;;;7.90;84.50;;;;;;5017785;28;20029;-82
2021/03/16 06:55:54;;;;;;;20.37;3.07;;;7.90;84.40;;;;;;5017386;28;20499;-82
2021/03/16 06:58:27;;;;;;;17.23;3.07;;;8.00;84.40;;;;;;5014971;28;20038;-82
2021/03/16 07:01:13;;;;;;;19.03;3.27;;;7.90;84.40;;;;;;4996749;28;20022;-83
2021/03/16 07:03:39;;;;;;;20.47;2.90;;;7.90;84.60;;;;;;5023985;28;20508;-82
2021/03/16 07:06:12;;;;;;;16.30;2.67;;;8.00;84.70;;;;;;5013891;28;20053;-82
2021/03/16 07:08:39;;;;;;;15.87;2.93;;;8.00;84.60;;;;;;5030512;28;20026;-80
2021/03/16 07:11:07;;;;;;;22.40;3.87;;;8.10;84.60;;;;;;5012810;28;20037;-82
2021/03/16 07:13:34;;;;;;;21.90;4.00;;;8.10;84.50;;;;;;5030502;28;20389;-82
2021/03/16 07:16:03;;;;;;;18.83;3.50;;;8.10;84.40;;;;;;5030307;28;20053;-82
2021/03/16 07:18:34;;;;;;;19.63;3.33;;;8.20;84.50;;;;;;5029690;28;20498;-83
2021/03/16 07:21:04;;;;;;;19.60;4.00;;;8.30;84.40;;;;;;5031506;28;20055;-82
2021/03/16 07:23:44;;;;;;;17.53;3.83;;;8.40;84.30;;;;;;5014089;28;20025;-82
2021/03/16 07:26:10;;;;;;;21.57;3.27;;;8.50;84.00;;;;;;5030976;28;20116;-83
2021/03/16 07:28:36;;;;;;;22.77;3.97;;;8.70;83.70;;;;;;5013977;28;20163;-82
2021/03/16 07:31:02;;;;;;;18.33;2.87;;;8.80;83.20;;;;;;5034792;28;20072;-84
2021/03/16 07:33:29;;;;;;;22.50;3.73;;;8.90;82.90;;;;;;5015537;28;20045;-85
2021/03/16 07:35:55;;;;;;;19.20;3.10;;;9.10;82.30;;;;;;5016578;28;20036;-84
2021/03/16 07:38:22;;;;;;;18.23;2.70;;;9.30;82.10;;;;;;5034239;28;20118;-84
2021/03/16 07:40:52;;;;;;;20.17;3.83;;;9.60;81.70;;;;;;4995947;28;20049;-82
2021/03/16 07:43:18;;;;;;;17.40;3.13;;;10.00;80.80;;;;;;4994182;28;20048;-80
2021/03/16 07:45:43;;;;;;;19.63;3.00;;;10.40;78.80;;;;;;5015995;28;20037;-80
2021/03/16 07:48:17;;;;;;;19.00;3.13;;;10.60;78.20;;;;;;5034115;28;20034;-82
2021/03/16 07:50:43;;;;;;;23.33;3.13;;;10.80;77.10;;;;;;5033560;28;20049;-81
2021/03/16 07:53:09;;;;;;;23.30;3.00;;;11.20;76.80;;;;;;5017253;28;20060;-81
2021/03/16 07:55:35;;;;;;;18.63;2.57;;;11.50;75.50;;;;;;5033245;28;20092;-83
2021/03/16 07:58:12;;;;;;;18.50;2.53;;;11.60;75.10;;;;;;5028737;28;20149;-82
2021/03/16 08:00:38;;;;;;;20.03;3.00;;;11.40;73.60;;;;;;5005596;28;20507;-83
2021/03/16 08:03:07;;;;;;;18.70;2.83;;;11.10;74.20;;;;;;5008808;28;20121;-83
2021/03/16 08:05:41;;;;;;;24.33;3.37;;;10.90;74.60;;;;;;5023408;28;20036;-83
2021/03/16 08:08:17;;;;;;;17.83;2.90;;;10.80;75.40;;;;;;5030820;28;20109;-84
2021/03/16 08:10:43;;;;;;;18.33;3.53;;;10.70;75.70;;;;;;5007183;28;20026;-82
2021/03/16 08:13:16;;;;;;;16.63;3.67;;;10.60;76.00;;;;;;5007777;28;20521;-82
2021/03/16 08:15:41;;;;;;;;;;;10.60;76.20;;;;;;5028791;28;20112;-83
2021/03/16 08:18:07;;;;;;;22.37;4.63;;;10.70;76.10;;;;;;5013769;28;20055;-84
2021/03/16 08:20:33;;;;;;;32.70;4.80;;;11.00;75.40;;;;;;5016337;28;20189;-82
2021/03/16 08:23:17;;;;;;;23.57;5.53;;;11.20;75.10;;;;;;5014676;28;20117;-81
2021/03/16 08:25:44;;;;;;;22.53;5.37;;;11.20;74.90;;;;;;4997538;28;20088;-82
2021/03/16 08:28:16;;;;;;;19.87;4.40;;;11.00;74.90;;;;;;4999229;28;20439;-79
2021/03/16 08:30:42;;;;;;;20.10;4.25;;;10.60;74.90;;;;;;5014387;28;20037;-80
2021/03/16 08:33:12;;;;;;;13.50;3.33;;;10.30;75.90;;;;;;4999200;28;20124;-78
2021/03/16 08:35:45;;;;;;;18.17;5.33;;;10.00;76.00;;;;;;4998695;28;20048;-78
2021/03/16 08:38:19;;;;;;;;;;;9.70;76.60;;;;;;5033245;28;20056;-79
2021/03/16 08:40:44;;;;;;;18.10;7.93;;;9.60;76.90;;;;;;5029173;28;19919;-81
2021/03/16 08:43:10;;;;;;;24.20;9.63;;;9.60;78.20;;;;;;5031548;28;20112;-81
2021/03/16 08:45:36;;;;;;;20.13;6.80;;;9.70;78.80;;;;;;5027982;28;20040;-80
2021/03/16 08:48:02;;;;;;;25.03;5.87;;;10.00;78.00;;;;;;5011327;28;20113;-80
2021/03/16 08:50:28;;;;;;;23.03;5.67;;;10.20;78.10;;;;;;5018804;28;20120;-80
2021/03/16 08:52:54;;;;;;;22.43;5.27;;;10.40;77.70;;;;;;5000913;28;20109;-80
2021/03/16 08:55:28;;;;;;;19.63;4.70;;;10.40;77.20;;;;;;5021047;28;20046;-80
2021/03/16 08:57:55;;;;;;;14.00;3.57;;;10.40;76.80;;;;;;5006773;28;20029;-81
2021/03/16 09:00:26;;;;;;;11.13;3.63;;;10.40;76.30;;;;;;5012495;28;20061;-82
2021/03/16 09:02:52;;;;;;;13.83;3.07;;;10.40;76.00;;;;;;4997407;28;20095;-82
2021/03/16 09:05:20;;;;;;;16.10;3.40;;;10.50;75.00;;;;;;5015595;28;20095;-80
2021/03/16 09:07:47;;;;;;;6.77;2.27;;;10.50;75.10;;;;;;5013181;28;20022;-81
2021/03/16 09:10:18;;;;;;;15.47;3.80;;;10.60;74.80;;;;;;4982184;28;20037;-80
2021/03/16 09:12:47;;;;;;;12.27;3.93;;;10.50;74.60;;;;;;5022672;28;20032;-80
2021/03/16 09:15:21;;;;;;;12.43;4.33;;;10.50;74.70;;;;;;5014196;28;20128;-82
2021/03/16 09:17:52;;;;;;;15.10;5.13;;;10.50;75.20;;;;;;5012207;28;20077;-82
2021/03/16 09:20:22;;;;;;;19.40;7.13;;;10.50;74.60;;;;;;5032186;28;20048;-79
2021/03/16 09:23:01;;;;;;;15.40;5.30;;;10.60;75.10;;;;;;5031313;28;20017;-81
2021/03/16 09:25:32;;;;;;;22.93;8.23;;;10.70;75.00;;;;;;5031427;28;20448;-81
2021/03/16 09:28:02;;;;;;;30.00;13.27;;;10.80;75.20;;;;;;5031799;28;20080;-82
2021/03/16 09:30:33;;;;;;;22.77;10.47;;;11.00;75.30;;;;;;5022750;28;20052;-81
2021/03/16 09:32:59;;;;;;;27.43;10.80;;;11.20;74.70;;;;;;5007985;28;20029;-82
2021/03/16 09:35:25;;;;;;;21.90;6.43;;;11.40;74.10;;;;;;4992902;28;20037;-81
2021/03/16 09:37:53;;;;;;;20.60;5.47;;;11.50;73.50;;;;;;4983690;28;21121;-82
2021/03/16 09:40:33;;;;;;;15.00;4.90;;;11.60;73.10;;;;;;5006347;28;20034;-80
2021/03/16 09:43:00;;;;;;;17.30;4.87;;;11.80;72.70;;;;;;5004534;28;20036;-81
2021/03/16 09:45:31;;;;;;;18.43;6.30;;;12.10;72.20;;;;;;5004234;28;20104;-82
2021/03/16 09:48:00;;;;;;;16.43;4.97;;;12.30;72.40;;;;;;5005169;28;20033;-82
2021/03/16 09:50:36;;;;;;;18.93;5.07;;;12.50;71.50;;;;;;5008420;28;20029;-81
2021/03/16 09:53:04;;;;;;;16.23;3.77;;;12.90;70.60;;;;;;5021042;28;20469;-82
2021/03/16 09:55:30;;;;;;;17.73;4.50;;;13.40;69.80;;;;;;5023186;28;20036;-83
2021/03/16 09:57:56;;;;;;;17.48;3.75;;;13.80;68.10;;;;;;5021248;28;20060;-83
2021/03/16 10:00:23;;;;;;;16.23;4.28;;;14.20;67.20;;;;;;5006515;28;20029;-83
2021/03/16 10:02:49;;;;;;;8.93;2.72;;;14.80;66.80;;;;;;5008311;28;20489;-82
2021/03/16 10:05:17;;;;;;;16.70;3.63;;;15.20;65.10;;;;;;5008215;28;20037;-82
2021/03/16 10:07:50;;;;;;;12.55;3.70;;;15.00;62.50;;;;;;5012735;28;20025;-81
2021/03/16 10:10:21;;;;;;;16.85;3.33;;;14.80;63.30;;;;;;5021880;28;20041;-80
2021/03/16 10:13:07;;;;;;;27.63;8.35;;;14.60;62.90;;;;;;5031676;28;20022;-80
2021/03/16 10:15:38;;;;;;;14.77;4.93;;;14.20;64.30;;;;;;5010740;28;20045;-80
2021/03/16 10:18:09;;;;;;;13.88;3.30;;;14.00;65.00;;;;;;5019721;28;20076;-82
2021/03/16 10:20:38;;;;;;;17.20;5.40;;;13.80;65.00;;;;;;5030121;28;20367;-79
2021/03/16 10:23:10;;;;;;;13.25;4.90;;;13.50;64.80;;;;;;5013838;28;20033;-82
2021/03/16 10:25:37;;;;;;;12.18;2.45;;;13.40;65.80;;;;;;5031580;28;20025;-79
2021/03/16 10:28:08;;;;;;;12.70;2.90;;;13.20;65.30;;;;;;4981252;28;20033;-80
2021/03/16 10:30:39;;;;;;;13.70;2.70;;;13.00;66.00;;;;;;5014464;28;20032;-80
2021/03/16 10:33:07;;;;;;;15.57;2.85;;;12.80;66.90;;;;;;5013374;28;20032;-80
2021/03/16 10:35:35;;;;;;;12.60;3.63;;;12.50;66.80;;;;;;5031317;28;20461;-80
2021/03/16 10:38:02;;;;;;;15.93;2.70;;;12.40;67.60;;;;;;5014003;28;20037;-80
2021/03/16 10:40:28;;;;;;;14.63;2.60;;;12.30;67.80;;;;;;5032907;28;20032;-81
2021/03/16 10:42:53;;;;;;;9.90;2.23;;;12.30;67.80;;;;;;5031807;28;20037;-78
2021/03/16 10:45:19;;;;;;;14.27;2.53;;;12.20;67.60;;;;;;4975874;28;20296;-78
2021/03/16 10:47:46;;;;;;;15.00;3.03;;;12.20;67.40;;;;;;5010835;28;20529;-80
2021/03/16 10:50:12;;;;;;;14.90;2.70;;;12.10;67.20;;;;;;4996281;28;20033;-79
2021/03/16 10:52:37;;;;;;;12.43;2.60;;;11.90;67.30;;;;;;4997816;28;20323;-79
2021/03/16 10:55:04;;;;;;;7.57;1.50;;;11.80;67.40;;;;;;4992573;28;20036;-81
2021/03/16 10:57:30;;;;;;;11.13;2.47;;;11.50;67.20;;;;;;5012285;28;20036;-81
2021/03/16 10:59:55;;;;;;;11.87;2.60;;;11.30;68.00;;;;;;4993769;28;20033;-78
2021/03/16 11:02:21;;;;;;;8.27;1.20;;;11.20;68.50;;;;;;5009980;28;20045;-79
2021/03/16 11:04:47;;;;;;;9.70;1.20;;;10.80;67.80;;;;;;5028713;28;20111;-78
2021/03/16 11:07:12;;;;;;;7.97;1.17;;;10.50;67.60;;;;;;5011151;28;20032;-82
2021/03/16 11:09:38;;;;;;;7.30;1.33;;;10.20;69.10;;;;;;5025379;28;20025;-78
2021/03/16 11:12:04;;;;;;;10.90;1.40;;;10.10;69.50;;;;;;5029125;28;20470;-84
2021/03/16 11:14:30;;;;;;;11.80;2.00;;;10.00;70.30;;;;;;5012763;28;20045;-79
2021/03/16 11:16:56;;;;;;;13.30;2.50;;;10.00;70.90;;;;;;5026387;28;20355;-79
2021/03/16 11:19:21;;;;;;;8.60;2.37;;;10.30;71.60;;;;;;5008549;28;20046;-78
2021/03/16 11:21:47;;;;;;;11.37;1.60;;;10.50;71.50;;;;;;5012206;28;20040;-79
2021/03/16 11:24:14;;;;;;;11.33;1.70;;;10.80;71.50;;;;;;5017361;28;20069;-81
2021/03/16 11:26:40;;;;;;;9.57;2.17;;;11.20;70.90;;;;;;5032708;28;20021;-79
2021/03/16 11:29:05;;;;;;;11.00;1.83;;;11.50;70.20;;;;;;5015827;28;20040;-84
2021/03/16 11:31:31;;;;;;;8.97;1.70;;;11.90;69.90;;;;;;5017422;28;20033;-78
2021/03/16 11:33:57;;;;;;;11.20;1.53;;;12.10;68.70;;;;;;5014794;28;20112;-77
2021/03/16 11:36:23;;;;;;;10.37;2.13;;;12.30;67.50;;;;;;5009462;28;20393;-79
2021/03/16 11:38:49;;;;;;;7.07;1.60;;;12.50;67.70;;;;;;4995529;28;20037;-78
2021/03/16 11:41:15;;;;;;;11.13;2.40;;;12.50;66.00;;;;;;5013056;28;20037;-79
2021/03/16 11:43:40;;;;;;;10.13;1.93;;;12.40;65.90;;;;;;5013400;28;20030;-78
2021/03/16 11:46:06;;;;;;;5.70;0.67;;;12.10;66.00;;;;;;5016717;28;20392;-81
2021/03/16 11:48:32;;;;;;;3.13;0.60;;;11.80;66.20;;;;;;5017109;28;20038;-77
2021/03/16 11:50:58;;;;;;;4.47;0.90;;;11.50;66.20;;;;;;5005415;28;20128;-78
2021/03/16 11:53:24;;;;;;;4.10;0.50;;;11.30;66.80;;;;;;5010043;28;20045;-78
2021/03/16 11:55:49;;;;;;;5.77;0.70;;;11.10;66.20;;;;;;4996528;28;20477;-78
2021/03/16 11:58:15;;;;;;;10.47;0.87;;;11.00;66.60;;;;;;5010717;28;20025;-79
2021/03/16 12:00:42;;;;;;;6.43;0.73;;;11.00;66.60;;;;;;4995092;28;20552;-78
2021/03/16 12:03:07;;;;;;;4.00;0.60;;;11.10;66.80;;;;;;5006685;28;20043;-82
2021/03/16 12:05:33;;;;;;;5.23;0.67;;;11.00;66.30;;;;;;5009186;28;20033;-81
2021/03/16 12:07:59;;;;;;;4.90;0.50;;;11.10;66.30;;;;;;5010844;28;20152;-79
2021/03/16 12:10:25;;;;;;;6.20;0.80;;;11.20;66.50;;;;;;5011095;28;20438;-80
2021/03/16 12:12:50;;;;;;;6.60;1.10;;;11.40;66.50;;;;;;5009100;28;20025;-79
2021/03/16 12:15:19;;;;;;;3.83;0.60;;;11.60;66.30;;;;;;5018450;28;20045;-81
2021/03/16 12:17:47;;;;;;;2.77;0.60;;;11.70;66.30;;;;;;5009607;28;20072;-78
2021/03/16 12:20:13;;;;;;;3.37;0.73;;;11.80;65.80;;;;;;5014567;28;20531;-81
2021/03/16 12:22:39;;;;;;;4.70;0.80;;;11.80;64.90;;;;;;5005127;28;20058;-78
2021/03/16 12:25:06;;;;;;;2.80;0.70;;;11.90;65.40;;;;;;4991540;28;20445;-79
2021/03/16 12:27:33;;;;;;;2.43;0.50;;;11.90;64.70;;;;;;5007938;28;20173;-79
2021/03/16 12:29:59;;;;;;;4.30;0.60;;;12.00;65.10;;;;;;5012044;28;20029;-79
2021/03/16 12:32:25;;;;;;;2.90;0.40;;;12.10;65.40;;;;;;5015332;28;20033;-79
2021/03/16 12:34:51;;;;;;;4.00;0.70;;;12.20;64.30;;;;;;5015349;28;20064;-79
2021/03/16 12:37:20;;;;;;;1.57;0.30;;;11.90;63.90;;;;;;5015865;28;20083;-80
2021/03/16 12:39:46;;;;;;;1.50;0.40;;;11.60;64.30;;;;;;5033053;28;20121;-77
2021/03/16 12:42:12;;;;;;;3.70;0.53;;;11.50;65.40;;;;;;5016524;28;20076;-78
2021/03/16 12:44:39;;;;;;;2.70;0.50;;;11.50;66.70;;;;;;4997849;28;20049;-78
2021/03/16 12:47:05;;;;;;;1.47;0.40;;;11.40;66.80;;;;;;5033727;28;20033;-78
2021/03/16 12:49:34;;;;;;;2.57;0.70;;;11.40;67.20;;;;;;5011890;28;20025;-78